METAR Data
IDs: Format: Raw Decoded Include TAF

Data at: 2102 UTC 18 Apr 2021

TRPG 182100Z 08011KT 9999 BKN017 27/23 Q1018